sensor_id;sensor_type;location;lat;lon;timestamp;P1;durP1;ratioP1;P2;durP2;ratioP2
18076;SDS011;9165;45.714;11.362;2023-05-03T00:00:42;2.73;;;2.10;;
18076;SDS011;9165;45.714;11.362;2023-05-03T00:03:09;1.70;;;1.60;;
18076;SDS011;9165;45.714;11.362;2023-05-03T00:05:35;1.53;;;1.43;;
18076;SDS011;9165;45.714;11.362;2023-05-03T00:08:02;1.70;;;1.60;;
18076;SDS011;9165;45.714;11.362;2023-05-03T00:10:30;1.67;;;1.57;;
18076;SDS011;9165;45.714;11.362;2023-05-03T00:12:57;2.60;;;1.40;;
18076;SDS011;9165;45.714;11.362;2023-05-03T00:15:23;3.40;;;1.50;;
18076;SDS011;9165;45.714;11.362;2023-05-03T00:17:50;1.70;;;1.60;;
18076;SDS011;9165;45.714;11.362;2023-05-03T00:20:17;1.33;;;1.23;;
18076;SDS011;9165;45.714;11.362;2023-05-03T00:22:44;1.83;;;1.23;;
18076;SDS011;9165;45.714;11.362;2023-05-03T00:25:11;2.40;;;1.27;;
18076;SDS011;9165;45.714;11.362;2023-05-03T00:27:39;1.13;;;1.00;;
18076;SDS011;9165;45.714;11.362;2023-05-03T00:30:06;2.27;;;1.27;;
18076;SDS011;9165;45.714;11.362;2023-05-03T00:32:33;1.30;;;1.20;;
18076;SDS011;9165;45.714;11.362;2023-05-03T00:35:00;3.20;;;1.23;;
18076;SDS011;9165;45.714;11.362;2023-05-03T00:37:26;1.50;;;1.00;;
18076;SDS011;9165;45.714;11.362;2023-05-03T00:39:53;3.97;;;1.20;;
18076;SDS011;9165;45.714;11.362;2023-05-03T00:42:20;5.40;;;1.57;;
18076;SDS011;9165;45.714;11.362;2023-05-03T00:44:49;1.30;;;1.20;;
18076;SDS011;9165;45.714;11.362;2023-05-03T00:47:16;7.57;;;1.30;;
18076;SDS011;9165;45.714;11.362;2023-05-03T00:49:43;2.07;;;1.30;;
18076;SDS011;9165;45.714;11.362;2023-05-03T00:52:09;1.27;;;0.93;;
18076;SDS011;9165;45.714;11.362;2023-05-03T00:54:36;0.93;;;0.93;;
18076;SDS011;9165;45.714;11.362;2023-05-03T00:57:03;5.10;;;1.10;;
18076;SDS011;9165;45.714;11.362;2023-05-03T00:59:31;3.33;;;1.27;;
18076;SDS011;9165;45.714;11.362;2023-05-03T01:01:59;1.60;;;1.27;;
18076;SDS011;9165;45.714;11.362;2023-05-03T01:04:26;3.43;;;1.10;;
18076;SDS011;9165;45.714;11.362;2023-05-03T01:06:56;1.33;;;1.20;;
18076;SDS011;9165;45.714;11.362;2023-05-03T01:09:26;3.63;;;1.17;;
18076;SDS011;9165;45.714;11.362;2023-05-03T01:11:59;1.93;;;1.20;;
18076;SDS011;9165;45.714;11.362;2023-05-03T01:14:27;1.20;;;1.10;;
18076;SDS011;9165;45.714;11.362;2023-05-03T01:16:57;1.43;;;1.27;;
18076;SDS011;9165;45.714;11.362;2023-05-03T01:19:28;1.27;;;1.00;;
18076;SDS011;9165;45.714;11.362;2023-05-03T01:22:02;3.07;;;1.17;;
18076;SDS011;9165;45.714;11.362;2023-05-03T01:24:32;1.30;;;1.20;;
18076;SDS011;9165;45.714;11.362;2023-05-03T01:27:04;3.80;;;1.20;;
18076;SDS011;9165;45.714;11.362;2023-05-03T01:29:30;3.97;;;1.20;;
18076;SDS011;9165;45.714;11.362;2023-05-03T01:31:58;1.43;;;1.20;;
18076;SDS011;9165;45.714;11.362;2023-05-03T01:34:27;1.90;;;1.17;;
18076;SDS011;9165;45.714;11.362;2023-05-03T01:36:55;1.07;;;0.97;;
18076;SDS011;9165;45.714;11.362;2023-05-03T01:39:23;5.93;;;1.47;;
18076;SDS011;9165;45.714;11.362;2023-05-03T01:41:51;2.80;;;1.30;;
18076;SDS011;9165;45.714;11.362;2023-05-03T01:44:19;1.63;;;1.27;;
18076;SDS011;9165;45.714;11.362;2023-05-03T01:46:47;1.30;;;1.20;;
18076;SDS011;9165;45.714;11.362;2023-05-03T01:49:13;1.20;;;1.00;;
18076;SDS011;9165;45.714;11.362;2023-05-03T01:51:40;1.07;;;0.80;;
18076;SDS011;9165;45.714;11.362;2023-05-03T01:54:07;0.80;;;0.80;;
18076;SDS011;9165;45.714;11.362;2023-05-03T01:56:34;1.20;;;1.10;;
18076;SDS011;9165;45.714;11.362;2023-05-03T01:59:01;1.90;;;1.07;;
18076;SDS011;9165;45.714;11.362;2023-05-03T02:01:29;1.43;;;1.20;;
18076;SDS011;9165;45.714;11.362;2023-05-03T02:03:55;3.13;;;1.10;;
18076;SDS011;9165;45.714;11.362;2023-05-03T02:06:23;0.87;;;0.80;;
18076;SDS011;9165;45.714;11.362;2023-05-03T02:08:49;1.30;;;1.20;;
18076;SDS011;9165;45.714;11.362;2023-05-03T02:11:16;4.70;;;1.03;;
18076;SDS011;9165;45.714;11.362;2023-05-03T02:13:43;3.83;;;1.10;;
18076;SDS011;9165;45.714;11.362;2023-05-03T02:16:09;2.47;;;1.10;;
18076;SDS011;9165;45.714;11.362;2023-05-03T02:18:37;1.70;;;1.00;;
18076;SDS011;9165;45.714;11.362;2023-05-03T02:21:04;2.50;;;1.17;;
18076;SDS011;9165;45.714;11.362;2023-05-03T02:23:31;1.57;;;0.80;;
18076;SDS011;9165;45.714;11.362;2023-05-03T02:25:57;1.30;;;0.77;;
18076;SDS011;9165;45.714;11.362;2023-05-03T02:28:24;1.13;;;1.03;;
18076;SDS011;9165;45.714;11.362;2023-05-03T02:30:50;1.70;;;1.00;;
18076;SDS011;9165;45.714;11.362;2023-05-03T02:33:17;1.20;;;1.03;;
18076;SDS011;9165;45.714;11.362;2023-05-03T02:35:46;1.83;;;1.10;;
18076;SDS011;9165;45.714;11.362;2023-05-03T02:38:12;1.47;;;0.80;;
18076;SDS011;9165;45.714;11.362;2023-05-03T02:40:39;1.00;;;0.90;;
18076;SDS011;9165;45.714;11.362;2023-05-03T02:43:05;3.97;;;1.20;;
18076;SDS011;9165;45.714;11.362;2023-05-03T02:45:33;4.13;;;1.17;;
18076;SDS011;9165;45.714;11.362;2023-05-03T02:48:00;0.90;;;0.90;;
18076;SDS011;9165;45.714;11.362;2023-05-03T02:50:26;1.33;;;1.10;;
18076;SDS011;9165;45.714;11.362;2023-05-03T02:52:54;1.37;;;0.93;;
18076;SDS011;9165;45.714;11.362;2023-05-03T02:55:21;2.63;;;1.03;;
18076;SDS011;9165;45.714;11.362;2023-05-03T02:57:48;1.33;;;0.97;;
18076;SDS011;9165;45.714;11.362;2023-05-03T03:00:15;4.00;;;1.43;;
18076;SDS011;9165;45.714;11.362;2023-05-03T03:02:41;0.93;;;0.93;;
18076;SDS011;9165;45.714;11.362;2023-05-03T03:05:08;0.90;;;0.83;;
18076;SDS011;9165;45.714;11.362;2023-05-03T03:07:36;0.97;;;0.90;;
18076;SDS011;9165;45.714;11.362;2023-05-03T03:10:04;1.37;;;0.90;;
18076;SDS011;9165;45.714;11.362;2023-05-03T03:12:32;5.10;;;0.90;;
18076;SDS011;9165;45.714;11.362;2023-05-03T03:14:58;0.93;;;0.90;;
18076;SDS011;9165;45.714;11.362;2023-05-03T03:17:25;0.63;;;0.63;;
18076;SDS011;9165;45.714;11.362;2023-05-03T03:19:51;1.23;;;1.03;;
18076;SDS011;9165;45.714;11.362;2023-05-03T03:22:18;1.03;;;0.93;;
18076;SDS011;9165;45.714;11.362;2023-05-03T03:24:44;0.97;;;0.70;;
18076;SDS011;9165;45.714;11.362;2023-05-03T03:27:12;1.43;;;0.90;;
18076;SDS011;9165;45.714;11.362;2023-05-03T03:29:39;1.63;;;0.80;;
18076;SDS011;9165;45.714;11.362;2023-05-03T03:32:06;1.13;;;0.90;;
18076;SDS011;9165;45.714;11.362;2023-05-03T03:34:32;0.80;;;0.67;;
18076;SDS011;9165;45.714;11.362;2023-05-03T03:36:59;1.10;;;1.03;;
18076;SDS011;9165;45.714;11.362;2023-05-03T03:39:25;0.70;;;0.70;;
18076;SDS011;9165;45.714;11.362;2023-05-03T03:41:52;1.07;;;0.80;;
18076;SDS011;9165;45.714;11.362;2023-05-03T03:44:20;0.70;;;0.70;;
18076;SDS011;9165;45.714;11.362;2023-05-03T03:46:46;1.80;;;1.10;;
18076;SDS011;9165;45.714;11.362;2023-05-03T03:49:13;1.00;;;0.83;;
18076;SDS011;9165;45.714;11.362;2023-05-03T03:51:40;0.73;;;0.73;;
18076;SDS011;9165;45.714;11.362;2023-05-03T03:54:06;0.70;;;0.70;;
18076;SDS011;9165;45.714;11.362;2023-05-03T03:56:33;1.03;;;0.90;;
18076;SDS011;9165;45.714;11.362;2023-05-03T03:58:59;2.43;;;1.10;;
18076;SDS011;9165;45.714;11.362;2023-05-03T04:01:27;2.73;;;0.90;;
18076;SDS011;9165;45.714;11.362;2023-05-03T04:03:54;2.50;;;1.03;;
18076;SDS011;9165;45.714;11.362;2023-05-03T04:06:21;1.50;;;0.80;;
18076;SDS011;9165;45.714;11.362;2023-05-03T04:08:48;6.33;;;0.83;;
18076;SDS011;9165;45.714;11.362;2023-05-03T04:11:14;1.30;;;0.80;;
18076;SDS011;9165;45.714;11.362;2023-05-03T04:13:41;2.10;;;0.60;;
18076;SDS011;9165;45.714;11.362;2023-05-03T04:16:07;3.73;;;0.87;;
18076;SDS011;9165;45.714;11.362;2023-05-03T04:18:35;1.23;;;0.90;;
18076;SDS011;9165;45.714;11.362;2023-05-03T04:21:02;5.03;;;1.47;;
18076;SDS011;9165;45.714;11.362;2023-05-03T04:23:29;0.90;;;0.90;;
18076;SDS011;9165;45.714;11.362;2023-05-03T04:25:56;0.80;;;0.80;;
18076;SDS011;9165;45.714;11.362;2023-05-03T04:28:22;1.53;;;0.80;;
18076;SDS011;9165;45.714;11.362;2023-05-03T04:30:50;1.33;;;0.80;;
18076;SDS011;9165;45.714;11.362;2023-05-03T04:33:16;3.17;;;1.10;;
18076;SDS011;9165;45.714;11.362;2023-05-03T04:35:47;1.90;;;1.03;;
18076;SDS011;9165;45.714;11.362;2023-05-03T04:38:14;2.43;;;0.90;;
18076;SDS011;9165;45.714;11.362;2023-05-03T04:40:40;0.87;;;0.83;;
18076;SDS011;9165;45.714;11.362;2023-05-03T04:43:07;1.20;;;1.10;;
18076;SDS011;9165;45.714;11.362;2023-05-03T04:45:33;1.47;;;1.17;;
18076;SDS011;9165;45.714;11.362;2023-05-03T04:48:00;3.67;;;1.00;;
18076;SDS011;9165;45.714;11.362;2023-05-03T04:50:29;0.70;;;0.70;;
18076;SDS011;9165;45.714;11.362;2023-05-03T04:52:57;4.13;;;0.90;;
18076;SDS011;9165;45.714;11.362;2023-05-03T04:55:24;1.40;;;1.00;;
18076;SDS011;9165;45.714;11.362;2023-05-03T04:57:51;1.73;;;1.10;;
18076;SDS011;9165;45.714;11.362;2023-05-03T05:00:17;1.77;;;1.00;;
18076;SDS011;9165;45.714;11.362;2023-05-03T05:02:45;0.80;;;0.80;;
18076;SDS011;9165;45.714;11.362;2023-05-03T05:05:12;1.17;;;1.07;;
18076;SDS011;9165;45.714;11.362;2023-05-03T05:07:38;1.13;;;0.83;;
18076;SDS011;9165;45.714;11.362;2023-05-03T05:10:08;3.47;;;0.97;;
18076;SDS011;9165;45.714;11.362;2023-05-03T05:12:35;1.00;;;0.90;;
18076;SDS011;9165;45.714;11.362;2023-05-03T05:15:01;10.40;;;1.40;;
18076;SDS011;9165;45.714;11.362;2023-05-03T05:17:28;1.23;;;1.13;;
18076;SDS011;9165;45.714;11.362;2023-05-03T05:19:54;1.20;;;1.10;;
18076;SDS011;9165;45.714;11.362;2023-05-03T05:22:21;0.90;;;0.90;;
18076;SDS011;9165;45.714;11.362;2023-05-03T05:24:48;1.33;;;1.20;;
18076;SDS011;9165;45.714;11.362;2023-05-03T05:27:15;4.17;;;1.17;;
18076;SDS011;9165;45.714;11.362;2023-05-03T05:29:42;2.37;;;0.97;;
18076;SDS011;9165;45.714;11.362;2023-05-03T05:32:09;3.97;;;2.07;;
18076;SDS011;9165;45.714;11.362;2023-05-03T05:34:36;1.03;;;0.93;;
18076;SDS011;9165;45.714;11.362;2023-05-03T05:37:03;1.83;;;1.17;;
18076;SDS011;9165;45.714;11.362;2023-05-03T05:39:31;1.30;;;1.07;;
18076;SDS011;9165;45.714;11.362;2023-05-03T05:41:58;3.77;;;1.17;;
18076;SDS011;9165;45.714;11.362;2023-05-03T05:44:26;5.37;;;1.20;;
18076;SDS011;9165;45.714;11.362;2023-05-03T05:46:53;1.20;;;1.10;;
18076;SDS011;9165;45.714;11.362;2023-05-03T05:49:20;2.87;;;1.10;;
18076;SDS011;9165;45.714;11.362;2023-05-03T05:51:46;3.73;;;0.90;;
18076;SDS011;9165;45.714;11.362;2023-05-03T05:54:13;1.10;;;1.00;;
18076;SDS011;9165;45.714;11.362;2023-05-03T05:56:40;0.87;;;0.80;;
18076;SDS011;9165;45.714;11.362;2023-05-03T05:59:06;1.53;;;1.20;;
18076;SDS011;9165;45.714;11.362;2023-05-03T06:01:35;1.30;;;1.10;;
18076;SDS011;9165;45.714;11.362;2023-05-03T06:04:05;0.97;;;0.90;;
18076;SDS011;9165;45.714;11.362;2023-05-03T06:06:32;1.50;;;1.20;;
18076;SDS011;9165;45.714;11.362;2023-05-03T06:08:58;0.87;;;0.87;;
18076;SDS011;9165;45.714;11.362;2023-05-03T06:11:25;0.80;;;0.80;;
18076;SDS011;9165;45.714;11.362;2023-05-03T06:13:52;1.23;;;1.10;;
18076;SDS011;9165;45.714;11.362;2023-05-03T06:16:19;1.13;;;0.83;;
18076;SDS011;9165;45.714;11.362;2023-05-03T06:18:47;1.33;;;1.10;;
18076;SDS011;9165;45.714;11.362;2023-05-03T06:21:14;1.03;;;1.00;;
18076;SDS011;9165;45.714;11.362;2023-05-03T06:23:40;1.00;;;0.90;;
18076;SDS011;9165;45.714;11.362;2023-05-03T06:26:07;0.70;;;0.70;;
18076;SDS011;9165;45.714;11.362;2023-05-03T06:28:34;1.17;;;0.90;;
18076;SDS011;9165;45.714;11.362;2023-05-03T06:31:00;1.43;;;1.30;;
18076;SDS011;9165;45.714;11.362;2023-05-03T06:33:27;1.10;;;1.00;;
18076;SDS011;9165;45.714;11.362;2023-05-03T06:35:55;0.87;;;0.80;;
18076;SDS011;9165;45.714;11.362;2023-05-03T06:38:23;2.37;;;0.77;;
18076;SDS011;9165;45.714;11.362;2023-05-03T06:40:49;1.40;;;1.30;;
18076;SDS011;9165;45.714;11.362;2023-05-03T06:43:16;3.17;;;1.00;;
18076;SDS011;9165;45.714;11.362;2023-05-03T06:45:42;1.30;;;1.10;;
18076;SDS011;9165;45.714;11.362;2023-05-03T06:48:09;0.97;;;0.97;;
18076;SDS011;9165;45.714;11.362;2023-05-03T06:50:36;1.70;;;1.03;;
18076;SDS011;9165;45.714;11.362;2023-05-03T06:53:03;3.23;;;1.10;;
18076;SDS011;9165;45.714;11.362;2023-05-03T06:55:30;4.03;;;0.80;;
18076;SDS011;9165;45.714;11.362;2023-05-03T06:57:58;2.30;;;0.90;;
18076;SDS011;9165;45.714;11.362;2023-05-03T07:00:25;1.90;;;0.90;;
18076;SDS011;9165;45.714;11.362;2023-05-03T07:02:52;3.00;;;1.10;;
18076;SDS011;9165;45.714;11.362;2023-05-03T07:05:18;1.73;;;0.83;;
18076;SDS011;9165;45.714;11.362;2023-05-03T07:07:45;2.60;;;0.90;;
18076;SDS011;9165;45.714;11.362;2023-05-03T07:10:13;1.03;;;0.60;;
18076;SDS011;9165;45.714;11.362;2023-05-03T07:12:40;1.20;;;0.90;;
18076;SDS011;9165;45.714;11.362;2023-05-03T07:15:07;2.40;;;0.90;;
18076;SDS011;9165;45.714;11.362;2023-05-03T07:17:33;0.90;;;0.80;;
18076;SDS011;9165;45.714;11.362;2023-05-03T07:20:00;2.67;;;0.70;;
18076;SDS011;9165;45.714;11.362;2023-05-03T07:22:26;1.73;;;0.60;;
18076;SDS011;9165;45.714;11.362;2023-05-03T07:24:53;1.53;;;0.90;;
18076;SDS011;9165;45.714;11.362;2023-05-03T07:27:22;0.57;;;0.57;;
18076;SDS011;9165;45.714;11.362;2023-05-03T07:29:49;0.57;;;0.57;;
18076;SDS011;9165;45.714;11.362;2023-05-03T07:32:15;1.90;;;0.80;;
18076;SDS011;9165;45.714;11.362;2023-05-03T07:34:42;1.17;;;0.70;;
18076;SDS011;9165;45.714;11.362;2023-05-03T07:37:09;1.33;;;0.63;;
18076;SDS011;9165;45.714;11.362;2023-05-03T07:39:36;0.50;;;0.50;;
18076;SDS011;9165;45.714;11.362;2023-05-03T07:42:02;0.50;;;0.50;;
18076;SDS011;9165;45.714;11.362;2023-05-03T07:44:31;0.67;;;0.63;;
18076;SDS011;9165;45.714;11.362;2023-05-03T07:46:57;4.30;;;0.70;;
18076;SDS011;9165;45.714;11.362;2023-05-03T07:49:24;1.77;;;0.73;;
18076;SDS011;9165;45.714;11.362;2023-05-03T07:51:50;0.57;;;0.57;;
18076;SDS011;9165;45.714;11.362;2023-05-03T07:54:17;0.53;;;0.53;;
18076;SDS011;9165;45.714;11.362;2023-05-03T07:56:44;0.47;;;0.47;;
18076;SDS011;9165;45.714;11.362;2023-05-03T07:59:10;0.50;;;0.50;;
18076;SDS011;9165;45.714;11.362;2023-05-03T08:01:38;2.20;;;0.50;;
18076;SDS011;9165;45.714;11.362;2023-05-03T08:04:05;0.50;;;0.50;;
18076;SDS011;9165;45.714;11.362;2023-05-03T08:06:32;2.00;;;0.90;;
18076;SDS011;9165;45.714;11.362;2023-05-03T08:09:00;0.70;;;0.70;;
18076;SDS011;9165;45.714;11.362;2023-05-03T08:11:28;0.83;;;0.73;;
18076;SDS011;9165;45.714;11.362;2023-05-03T08:13:55;1.43;;;0.80;;
18076;SDS011;9165;45.714;11.362;2023-05-03T08:16:22;1.33;;;0.83;;
18076;SDS011;9165;45.714;11.362;2023-05-03T08:18:50;0.80;;;0.80;;
18076;SDS011;9165;45.714;11.362;2023-05-03T08:21:16;1.67;;;1.50;;
18076;SDS011;9165;45.714;11.362;2023-05-03T08:23:43;0.60;;;0.60;;
18076;SDS011;9165;45.714;11.362;2023-05-03T08:26:10;0.80;;;0.70;;
18076;SDS011;9165;45.714;11.362;2023-05-03T08:28:38;0.50;;;0.50;;
18076;SDS011;9165;45.714;11.362;2023-05-03T08:31:04;1.37;;;0.60;;
18076;SDS011;9165;45.714;11.362;2023-05-03T08:33:31;2.87;;;0.77;;
18076;SDS011;9165;45.714;11.362;2023-05-03T08:35:59;0.80;;;0.80;;
18076;SDS011;9165;45.714;11.362;2023-05-03T08:38:27;0.80;;;0.80;;
18076;SDS011;9165;45.714;11.362;2023-05-03T08:40:54;1.60;;;0.80;;
18076;SDS011;9165;45.714;11.362;2023-05-03T08:43:21;1.40;;;1.10;;
18076;SDS011;9165;45.714;11.362;2023-05-03T08:45:49;2.10;;;1.15;;
18076;SDS011;9165;45.714;11.362;2023-05-03T08:48:16;2.90;;;0.70;;
18076;SDS011;9165;45.714;11.362;2023-05-03T08:50:43;0.60;;;0.50;;
18076;SDS011;9165;45.714;11.362;2023-05-03T08:53:11;0.40;;;0.40;;
18076;SDS011;9165;45.714;11.362;2023-05-03T08:58:07;0.70;;;0.60;;
18076;SDS011;9165;45.714;11.362;2023-05-03T09:00:36;3.10;;;0.70;;
18076;SDS011;9165;45.714;11.362;2023-05-03T09:03:05;0.60;;;0.60;;
18076;SDS011;9165;45.714;11.362;2023-05-03T09:05:32;231.87;;;87.17;;
18076;SDS011;9165;45.714;11.362;2023-05-03T09:08:00;17.63;;;7.53;;
18076;SDS011;9165;45.714;11.362;2023-05-03T09:10:28;20.92;;;9.45;;
18076;SDS011;9165;45.714;11.362;2023-05-03T09:12:56;14.55;;;5.82;;
18076;SDS011;9165;45.714;11.362;2023-05-03T09:15:23;16.88;;;7.53;;
18076;SDS011;9165;45.714;11.362;2023-05-03T09:18:05;19.20;;;8.80;;
18076;SDS011;9165;45.714;11.362;2023-05-03T09:20:32;17.63;;;7.72;;
18076;SDS011;9165;45.714;11.362;2023-05-03T09:22:59;14.15;;;6.18;;
18076;SDS011;9165;45.714;11.362;2023-05-03T09:25:39;19.55;;;9.13;;
18076;SDS011;9165;45.714;11.362;2023-05-03T09:28:06;464.13;;;141.77;;
18076;SDS011;9165;45.714;11.362;2023-05-03T09:30:33;683.42;;;227.02;;
18076;SDS011;9165;45.714;11.362;2023-05-03T09:32:59;308.40;;;87.75;;
18076;SDS011;9165;45.714;11.362;2023-05-03T09:35:26;481.77;;;147.07;;
18076;SDS011;9165;45.714;11.362;2023-05-03T09:37:53;460.53;;;98.20;;
18076;SDS011;9165;45.714;11.362;2023-05-03T09:40:20;663.10;;;217.70;;
18076;SDS011;9165;45.714;11.362;2023-05-03T09:45:29;13.77;;;6.07;;
18076;SDS011;9165;45.714;11.362;2023-05-03T09:47:56;14.43;;;6.23;;
18076;SDS011;9165;45.714;11.362;2023-05-03T09:50:22;672.40;;;231.03;;
18076;SDS011;9165;45.714;11.362;2023-05-03T09:52:50;674.30;;;229.63;;
18076;SDS011;9165;45.714;11.362;2023-05-03T09:55:17;487.20;;;161.00;;
18076;SDS011;9165;45.714;11.362;2023-05-03T09:57:46;479.13;;;155.10;;
18076;SDS011;9165;45.714;11.362;2023-05-03T10:00:13;678.67;;;224.00;;
18076;SDS011;9165;45.714;11.362;2023-05-03T10:02:42;506.27;;;168.57;;
18076;SDS011;9165;45.714;11.362;2023-05-03T10:05:09;685.90;;;225.93;;
18076;SDS011;9165;45.714;11.362;2023-05-03T10:07:37;482.93;;;154.00;;
18076;SDS011;9165;45.714;11.362;2023-05-03T10:10:06;482.57;;;151.77;;
18076;SDS011;9165;45.714;11.362;2023-05-03T10:12:33;290.40;;;82.37;;
18076;SDS011;9165;45.714;11.362;2023-05-03T10:15:00;480.73;;;154.27;;
18076;SDS011;9165;45.714;11.362;2023-05-03T10:17:30;673.30;;;213.53;;
18076;SDS011;9165;45.714;11.362;2023-05-03T10:20:01;283.93;;;76.63;;
18076;SDS011;9165;45.714;11.362;2023-05-03T10:22:36;296.23;;;80.85;;
18076;SDS011;9165;45.714;11.362;2023-05-03T10:25:23;284.70;;;79.67;;
18076;SDS011;9165;45.714;11.362;2023-05-03T10:27:50;678.27;;;223.40;;
18076;SDS011;9165;45.714;11.362;2023-05-03T10:30:27;671.60;;;206.83;;
18076;SDS011;9165;45.714;11.362;2023-05-03T10:32:55;283.93;;;75.67;;
18076;SDS011;9165;45.714;11.362;2023-05-03T10:35:26;685.90;;;218.83;;
18076;SDS011;9165;45.714;11.362;2023-05-03T10:37:52;667.83;;;161.53;;
18076;SDS011;9165;45.714;11.362;2023-05-03T10:40:21;285.10;;;78.00;;
18076;SDS011;9165;45.714;11.362;2023-05-03T10:42:49;296.80;;;84.57;;
18076;SDS011;9165;45.714;11.362;2023-05-03T10:45:20;556.73;;;168.27;;
18076;SDS011;9165;45.714;11.362;2023-05-03T10:50:29;499.83;;;174.17;;
18076;SDS011;9165;45.714;11.362;2023-05-03T10:52:56;683.03;;;215.70;;
18076;SDS011;9165;45.714;11.362;2023-05-03T10:55:23;7.20;;;0.57;;
18076;SDS011;9165;45.714;11.362;2023-05-03T10:57:52;1.40;;;0.50;;
18076;SDS011;9165;45.714;11.362;2023-05-03T11:00:21;10.30;;;5.17;;
18076;SDS011;9165;45.714;11.362;2023-05-03T11:02:59;6.30;;;1.50;;
18076;SDS011;9165;45.714;11.362;2023-05-03T11:05:30;0.30;;;0.30;;
18076;SDS011;9165;45.714;11.362;2023-05-03T11:08:06;1.67;;;0.50;;
18076;SDS011;9165;45.714;11.362;2023-05-03T11:10:33;76.77;;;61.13;;
18076;SDS011;9165;45.714;11.362;2023-05-03T11:12:59;0.90;;;0.90;;
18076;SDS011;9165;45.714;11.362;2023-05-03T11:15:26;0.70;;;0.70;;
18076;SDS011;9165;45.714;11.362;2023-05-03T11:17:52;0.60;;;0.60;;
18076;SDS011;9165;45.714;11.362;2023-05-03T11:20:19;0.53;;;0.53;;
18076;SDS011;9165;45.714;11.362;2023-05-03T11:22:47;0.50;;;0.50;;
18076;SDS011;9165;45.714;11.362;2023-05-03T11:25:14;2.40;;;0.80;;
18076;SDS011;9165;45.714;11.362;2023-05-03T11:27:41;0.70;;;0.70;;
18076;SDS011;9165;45.714;11.362;2023-05-03T11:30:08;0.63;;;0.63;;
18076;SDS011;9165;45.714;11.362;2023-05-03T11:32:35;0.73;;;0.47;;
18076;SDS011;9165;45.714;11.362;2023-05-03T11:35:01;0.70;;;0.67;;
18076;SDS011;9165;45.714;11.362;2023-05-03T11:37:29;0.77;;;0.77;;
18076;SDS011;9165;45.714;11.362;2023-05-03T11:39:58;0.90;;;0.90;;
18076;SDS011;9165;45.714;11.362;2023-05-03T11:42:25;1.10;;;1.00;;
18076;SDS011;9165;45.714;11.362;2023-05-03T11:44:52;3.73;;;1.40;;
18076;SDS011;9165;45.714;11.362;2023-05-03T11:47:19;1.83;;;1.30;;
18076;SDS011;9165;45.714;11.362;2023-05-03T11:49:50;3.20;;;1.20;;
18076;SDS011;9165;45.714;11.362;2023-05-03T11:52:19;3.13;;;1.30;;
18076;SDS011;9165;45.714;11.362;2023-05-03T11:54:45;35.00;;;27.50;;
18076;SDS011;9165;45.714;11.362;2023-05-03T11:57:14;1.03;;;1.00;;
18076;SDS011;9165;45.714;11.362;2023-05-03T11:59:41;3.57;;;1.20;;
18076;SDS011;9165;45.714;11.362;2023-05-03T12:02:09;1.43;;;1.10;;
18076;SDS011;9165;45.714;11.362;2023-05-03T12:07:04;8.00;;;1.40;;
18076;SDS011;9165;45.714;11.362;2023-05-03T12:09:31;1.63;;;1.40;;
18076;SDS011;9165;45.714;11.362;2023-05-03T12:11:58;2.13;;;1.00;;
18076;SDS011;9165;45.714;11.362;2023-05-03T12:14:26;3.00;;;1.20;;
18076;SDS011;9165;45.714;11.362;2023-05-03T12:16:53;2.17;;;1.23;;
18076;SDS011;9165;45.714;11.362;2023-05-03T12:19:23;1.97;;;0.70;;
18076;SDS011;9165;45.714;11.362;2023-05-03T12:21:50;1.30;;;1.10;;
18076;SDS011;9165;45.714;11.362;2023-05-03T12:24:17;0.73;;;0.73;;
18076;SDS011;9165;45.714;11.362;2023-05-03T12:26:43;2.77;;;1.20;;
18076;SDS011;9165;45.714;11.362;2023-05-03T12:29:10;1.60;;;1.07;;
18076;SDS011;9165;45.714;11.362;2023-05-03T12:31:39;2.53;;;1.00;;
18076;SDS011;9165;45.714;11.362;2023-05-03T12:34:05;3.63;;;1.23;;
18076;SDS011;9165;45.714;11.362;2023-05-03T12:36:32;1.77;;;0.83;;
18076;SDS011;9165;45.714;11.362;2023-05-03T12:38:59;0.80;;;0.80;;
18076;SDS011;9165;45.714;11.362;2023-05-03T12:41:25;1.10;;;0.90;;
18076;SDS011;9165;45.714;11.362;2023-05-03T12:43:55;2.27;;;1.17;;
18076;SDS011;9165;45.714;11.362;2023-05-03T12:46:22;1.07;;;0.97;;
18076;SDS011;9165;45.714;11.362;2023-05-03T12:48:50;0.80;;;0.80;;
18076;SDS011;9165;45.714;11.362;2023-05-03T12:51:17;2.17;;;0.80;;
18076;SDS011;9165;45.714;11.362;2023-05-03T12:53:43;1.90;;;1.17;;
18076;SDS011;9165;45.714;11.362;2023-05-03T12:56:10;1.30;;;0.97;;
18076;SDS011;9165;45.714;11.362;2023-05-03T12:58:37;1.43;;;1.30;;
18076;SDS011;9165;45.714;11.362;2023-05-03T13:01:05;1.50;;;1.40;;
18076;SDS011;9165;45.714;11.362;2023-05-03T13:03:32;1.30;;;1.10;;
18076;SDS011;9165;45.714;11.362;2023-05-03T13:06:00;0.93;;;0.93;;
18076;SDS011;9165;45.714;11.362;2023-05-03T13:08:29;1.50;;;1.10;;
18076;SDS011;9165;45.714;11.362;2023-05-03T13:10:55;2.10;;;1.07;;
18076;SDS011;9165;45.714;11.362;2023-05-03T13:13:22;0.80;;;0.80;;
18076;SDS011;9165;45.714;11.362;2023-05-03T13:15:50;1.23;;;1.00;;
18076;SDS011;9165;45.714;11.362;2023-05-03T13:18:18;1.93;;;0.70;;
18076;SDS011;9165;45.714;11.362;2023-05-03T13:20:45;3.73;;;1.03;;
18076;SDS011;9165;45.714;11.362;2023-05-03T13:23:14;1.83;;;0.93;;
18076;SDS011;9165;45.714;11.362;2023-05-03T13:25:42;1.30;;;1.20;;
18076;SDS011;9165;45.714;11.362;2023-05-03T13:28:08;1.30;;;1.03;;
18076;SDS011;9165;45.714;11.362;2023-05-03T13:30:35;1.17;;;1.07;;
18076;SDS011;9165;45.714;11.362;2023-05-03T13:33:01;1.73;;;1.43;;
18076;SDS011;9165;45.714;11.362;2023-05-03T13:35:28;1.77;;;1.13;;
18076;SDS011;9165;45.714;11.362;2023-05-03T13:37:54;0.70;;;0.70;;
18076;SDS011;9165;45.714;11.362;2023-05-03T13:40:22;3.10;;;1.33;;
18076;SDS011;9165;45.714;11.362;2023-05-03T13:42:50;2.70;;;1.70;;
18076;SDS011;9165;45.714;11.362;2023-05-03T13:45:17;4.37;;;1.10;;
18076;SDS011;9165;45.714;11.362;2023-05-03T13:47:44;1.87;;;1.00;;
18076;SDS011;9165;45.714;11.362;2023-05-03T13:50:11;1.60;;;1.50;;
18076;SDS011;9165;45.714;11.362;2023-05-03T13:52:37;1.70;;;1.60;;
18076;SDS011;9165;45.714;11.362;2023-05-03T13:55:06;1.60;;;1.50;;
18076;SDS011;9165;45.714;11.362;2023-05-03T13:57:35;2.93;;;2.13;;
18076;SDS011;9165;45.714;11.362;2023-05-03T14:00:01;1.10;;;1.00;;
18076;SDS011;9165;45.714;11.362;2023-05-03T14:02:29;3.87;;;1.23;;
18076;SDS011;9165;45.714;11.362;2023-05-03T14:04:56;1.30;;;1.20;;
18076;SDS011;9165;45.714;11.362;2023-05-03T14:07:22;2.57;;;1.00;;
18076;SDS011;9165;45.714;11.362;2023-05-03T14:09:49;1.73;;;1.30;;
18076;SDS011;9165;45.714;11.362;2023-05-03T14:12:16;2.07;;;1.20;;
18076;SDS011;9165;45.714;11.362;2023-05-03T14:14:44;2.87;;;1.30;;
18076;SDS011;9165;45.714;11.362;2023-05-03T14:17:10;3.03;;;1.60;;
18076;SDS011;9165;45.714;11.362;2023-05-03T14:19:37;1.90;;;0.87;;
18076;SDS011;9165;45.714;11.362;2023-05-03T14:22:03;1.13;;;1.00;;
18076;SDS011;9165;45.714;11.362;2023-05-03T14:24:30;2.53;;;0.80;;
18076;SDS011;9165;45.714;11.362;2023-05-03T14:26:57;1.40;;;0.90;;
18076;SDS011;9165;45.714;11.362;2023-05-03T14:29:25;1.10;;;0.80;;
18076;SDS011;9165;45.714;11.362;2023-05-03T14:31:53;1.30;;;1.00;;
18076;SDS011;9165;45.714;11.362;2023-05-03T14:34:20;1.10;;;0.70;;
18076;SDS011;9165;45.714;11.362;2023-05-03T14:36:47;2.50;;;0.80;;
18076;SDS011;9165;45.714;11.362;2023-05-03T14:39:14;0.80;;;0.80;;
18076;SDS011;9165;45.714;11.362;2023-05-03T14:41:40;0.67;;;0.67;;
18076;SDS011;9165;45.714;11.362;2023-05-03T14:44:07;2.30;;;1.13;;
18076;SDS011;9165;45.714;11.362;2023-05-03T14:46:35;1.77;;;0.87;;
18076;SDS011;9165;45.714;11.362;2023-05-03T14:49:03;1.70;;;1.07;;
18076;SDS011;9165;45.714;11.362;2023-05-03T14:51:30;1.07;;;0.97;;
18076;SDS011;9165;45.714;11.362;2023-05-03T14:53:57;1.00;;;0.90;;